sensor_id;sensor_type;location;lat;lon;timestamp;P1;durP1;ratioP1;P2;durP2;ratioP2
44145;SDS011;29809;52.432;4.780;2023-03-01T00:01:21;2.78;;;2.58;;
44145;SDS011;29809;52.432;4.780;2023-03-01T00:03:47;3.65;;;2.90;;
44145;SDS011;29809;52.432;4.780;2023-03-01T00:06:12;2.72;;;2.53;;
44145;SDS011;29809;52.432;4.780;2023-03-01T00:08:37;2.90;;;2.55;;
44145;SDS011;29809;52.432;4.780;2023-03-01T00:11:07;6.10;;;3.17;;
44145;SDS011;29809;52.432;4.780;2023-03-01T00:13:33;2.63;;;2.42;;
44145;SDS011;29809;52.432;4.780;2023-03-01T00:15:59;2.80;;;2.53;;
44145;SDS011;29809;52.432;4.780;2023-03-01T00:18:26;2.97;;;2.67;;
44145;SDS011;29809;52.432;4.780;2023-03-01T00:20:52;3.38;;;3.00;;
44145;SDS011;29809;52.432;4.780;2023-03-01T00:23:18;2.78;;;2.47;;
44145;SDS011;29809;52.432;4.780;2023-03-01T00:25:43;3.38;;;2.85;;
44145;SDS011;29809;52.432;4.780;2023-03-01T00:28:08;2.95;;;2.50;;
44145;SDS011;29809;52.432;4.780;2023-03-01T00:30:34;2.40;;;2.20;;
44145;SDS011;29809;52.432;4.780;2023-03-01T00:32:59;2.97;;;2.67;;
44145;SDS011;29809;52.432;4.780;2023-03-01T00:35:25;3.53;;;2.40;;
44145;SDS011;29809;52.432;4.780;2023-03-01T00:37:50;3.05;;;2.80;;
44145;SDS011;29809;52.432;4.780;2023-03-01T00:40:22;3.10;;;2.80;;
44145;SDS011;29809;52.432;4.780;2023-03-01T00:42:47;2.85;;;2.65;;
44145;SDS011;29809;52.432;4.780;2023-03-01T00:45:13;2.53;;;2.33;;
44145;SDS011;29809;52.432;4.780;2023-03-01T00:47:38;3.08;;;2.78;;
44145;SDS011;29809;52.432;4.780;2023-03-01T00:50:03;2.83;;;2.40;;
44145;SDS011;29809;52.432;4.780;2023-03-01T00:52:29;2.63;;;2.40;;
44145;SDS011;29809;52.432;4.780;2023-03-01T00:54:54;3.13;;;2.78;;
44145;SDS011;29809;52.432;4.780;2023-03-01T00:57:19;2.85;;;2.55;;
44145;SDS011;29809;52.432;4.780;2023-03-01T00:59:44;2.58;;;2.38;;
44145;SDS011;29809;52.432;4.780;2023-03-01T01:02:10;2.92;;;2.72;;
44145;SDS011;29809;52.432;4.780;2023-03-01T01:04:35;2.72;;;2.53;;
44145;SDS011;29809;52.432;4.780;2023-03-01T01:07:00;2.90;;;2.63;;
44145;SDS011;29809;52.432;4.780;2023-03-01T01:09:25;3.30;;;2.60;;
44145;SDS011;29809;52.432;4.780;2023-03-01T01:11:51;3.03;;;2.83;;
44145;SDS011;29809;52.432;4.780;2023-03-01T01:14:17;2.50;;;2.20;;
44145;SDS011;29809;52.432;4.780;2023-03-01T01:16:42;3.08;;;2.78;;
44145;SDS011;29809;52.432;4.780;2023-03-01T01:19:09;3.83;;;2.80;;
44145;SDS011;29809;52.432;4.780;2023-03-01T01:21:35;2.90;;;2.70;;
44145;SDS011;29809;52.432;4.780;2023-03-01T01:24:02;3.63;;;2.55;;
44145;SDS011;29809;52.432;4.780;2023-03-01T01:26:29;2.92;;;2.72;;
44145;SDS011;29809;52.432;4.780;2023-03-01T01:28:54;2.65;;;2.45;;
44145;SDS011;29809;52.432;4.780;2023-03-01T01:31:19;3.08;;;2.85;;
44145;SDS011;29809;52.432;4.780;2023-03-01T01:33:45;2.60;;;2.38;;
44145;SDS011;29809;52.432;4.780;2023-03-01T01:36:11;2.60;;;2.40;;
44145;SDS011;29809;52.432;4.780;2023-03-01T01:38:36;2.63;;;2.42;;
44145;SDS011;29809;52.432;4.780;2023-03-01T01:41:02;3.53;;;2.83;;
44145;SDS011;29809;52.432;4.780;2023-03-01T01:43:29;2.50;;;2.30;;
44145;SDS011;29809;52.432;4.780;2023-03-01T01:45:55;2.50;;;2.30;;
44145;SDS011;29809;52.432;4.780;2023-03-01T01:48:22;3.28;;;2.72;;
44145;SDS011;29809;52.432;4.780;2023-03-01T01:50:54;3.17;;;2.75;;
44145;SDS011;29809;52.432;4.780;2023-03-01T01:53:20;2.78;;;2.58;;
44145;SDS011;29809;52.432;4.780;2023-03-01T01:55:47;2.85;;;2.65;;
44145;SDS011;29809;52.432;4.780;2023-03-01T01:58:14;2.75;;;2.53;;
44145;SDS011;29809;52.432;4.780;2023-03-01T02:00:40;3.03;;;2.60;;
44145;SDS011;29809;52.432;4.780;2023-03-01T02:03:08;2.75;;;2.55;;
44145;SDS011;29809;52.432;4.780;2023-03-01T02:05:37;2.67;;;2.42;;
44145;SDS011;29809;52.432;4.780;2023-03-01T02:08:03;2.72;;;2.53;;
44145;SDS011;29809;52.432;4.780;2023-03-01T02:10:28;2.78;;;2.58;;
44145;SDS011;29809;52.432;4.780;2023-03-01T02:12:54;2.45;;;2.25;;
44145;SDS011;29809;52.432;4.780;2023-03-01T02:15:21;2.67;;;2.47;;
44145;SDS011;29809;52.432;4.780;2023-03-01T02:17:46;2.83;;;2.60;;
44145;SDS011;29809;52.432;4.780;2023-03-01T02:22:37;3.13;;;2.83;;
44145;SDS011;29809;52.432;4.780;2023-03-01T02:27:54;3.10;;;2.80;;
44145;SDS011;29809;52.432;4.780;2023-03-01T02:30:21;2.58;;;2.38;;
44145;SDS011;29809;52.432;4.780;2023-03-01T02:32:47;3.30;;;3.00;;
44145;SDS011;29809;52.432;4.780;2023-03-01T02:35:13;3.17;;;2.88;;
44145;SDS011;29809;52.432;4.780;2023-03-01T02:37:40;3.17;;;2.88;;
44145;SDS011;29809;52.432;4.780;2023-03-01T02:40:08;3.10;;;2.80;;
44145;SDS011;29809;52.432;4.780;2023-03-01T02:42:37;5.07;;;2.95;;
44145;SDS011;29809;52.432;4.780;2023-03-01T02:45:05;3.30;;;3.00;;
44145;SDS011;29809;52.432;4.780;2023-03-01T02:47:31;3.00;;;2.80;;
44145;SDS011;29809;52.432;4.780;2023-03-01T02:49:56;2.80;;;2.60;;
44145;SDS011;29809;52.432;4.780;2023-03-01T02:55:01;2.75;;;2.55;;
44145;SDS011;29809;52.432;4.780;2023-03-01T02:57:27;2.60;;;2.40;;
44145;SDS011;29809;52.432;4.780;2023-03-01T02:59:54;3.08;;;2.88;;
44145;SDS011;29809;52.432;4.780;2023-03-01T03:02:27;2.75;;;2.55;;
44145;SDS011;29809;52.432;4.780;2023-03-01T03:05:06;2.80;;;2.60;;
44145;SDS011;29809;52.432;4.780;2023-03-01T03:07:33;2.50;;;2.30;;
44145;SDS011;29809;52.432;4.780;2023-03-01T03:09:59;2.53;;;2.33;;
44145;SDS011;29809;52.432;4.780;2023-03-01T03:12:24;2.05;;;1.95;;
44145;SDS011;29809;52.432;4.780;2023-03-01T03:14:49;2.63;;;2.42;;
44145;SDS011;29809;52.432;4.780;2023-03-01T03:17:15;2.50;;;2.40;;
44145;SDS011;29809;52.432;4.780;2023-03-01T03:19:40;2.63;;;2.38;;
44145;SDS011;29809;52.432;4.780;2023-03-01T03:22:05;2.40;;;2.20;;
44145;SDS011;29809;52.432;4.780;2023-03-01T03:24:30;2.33;;;2.22;;
44145;SDS011;29809;52.432;4.780;2023-03-01T03:27:02;2.83;;;2.63;;
44145;SDS011;29809;52.432;4.780;2023-03-01T03:29:28;2.72;;;2.53;;
44145;SDS011;29809;52.432;4.780;2023-03-01T03:31:53;2.60;;;2.40;;
44145;SDS011;29809;52.432;4.780;2023-03-01T03:34:18;2.50;;;2.30;;
44145;SDS011;29809;52.432;4.780;2023-03-01T03:36:43;1.92;;;1.80;;
44145;SDS011;29809;52.432;4.780;2023-03-01T03:39:09;2.17;;;2.08;;
44145;SDS011;29809;52.432;4.780;2023-03-01T03:41:34;2.03;;;1.80;;
44145;SDS011;29809;52.432;4.780;2023-03-01T03:44:00;2.08;;;1.83;;
44145;SDS011;29809;52.432;4.780;2023-03-01T03:46:25;2.50;;;2.30;;
44145;SDS011;29809;52.432;4.780;2023-03-01T03:48:51;2.05;;;1.77;;
44145;SDS011;29809;52.432;4.780;2023-03-01T03:51:16;1.98;;;1.88;;
44145;SDS011;29809;52.432;4.780;2023-03-01T03:53:42;1.98;;;1.88;;
44145;SDS011;29809;52.432;4.780;2023-03-01T03:56:08;1.88;;;1.77;;
44145;SDS011;29809;52.432;4.780;2023-03-01T03:58:33;1.75;;;1.65;;
44145;SDS011;29809;52.432;4.780;2023-03-01T04:00:59;1.70;;;1.60;;
44145;SDS011;29809;52.432;4.780;2023-03-01T04:03:26;1.70;;;1.60;;
44145;SDS011;29809;52.432;4.780;2023-03-01T04:05:51;2.03;;;1.60;;
44145;SDS011;29809;52.432;4.780;2023-03-01T04:08:21;1.98;;;1.88;;
44145;SDS011;29809;52.432;4.780;2023-03-01T04:10:47;1.70;;;1.60;;
44145;SDS011;29809;52.432;4.780;2023-03-01T04:13:14;1.60;;;1.50;;
44145;SDS011;29809;52.432;4.780;2023-03-01T04:15:39;1.80;;;1.70;;
44145;SDS011;29809;52.432;4.780;2023-03-01T04:18:05;3.47;;;1.73;;
44145;SDS011;29809;52.432;4.780;2023-03-01T04:20:31;1.83;;;1.67;;
44145;SDS011;29809;52.432;4.780;2023-03-01T04:22:59;1.95;;;1.85;;
44145;SDS011;29809;52.432;4.780;2023-03-01T04:25:35;1.60;;;1.50;;
44145;SDS011;29809;52.432;4.780;2023-03-01T04:28:00;1.80;;;1.70;;
44145;SDS011;29809;52.432;4.780;2023-03-01T04:30:25;2.10;;;1.90;;
44145;SDS011;29809;52.432;4.780;2023-03-01T04:32:51;2.08;;;1.88;;
44145;SDS011;29809;52.432;4.780;2023-03-01T04:35:16;2.30;;;2.10;;
44145;SDS011;29809;52.432;4.780;2023-03-01T04:37:41;2.73;;;2.30;;
44145;SDS011;29809;52.432;4.780;2023-03-01T04:40:07;2.77;;;2.50;;
44145;SDS011;29809;52.432;4.780;2023-03-01T04:42:40;2.58;;;2.17;;
44145;SDS011;29809;52.432;4.780;2023-03-01T04:45:07;2.63;;;2.30;;
44145;SDS011;29809;52.432;4.780;2023-03-01T04:47:38;2.83;;;2.50;;
44145;SDS011;29809;52.432;4.780;2023-03-01T04:50:03;2.53;;;2.33;;
44145;SDS011;29809;52.432;4.780;2023-03-01T04:52:29;2.85;;;2.50;;
44145;SDS011;29809;52.432;4.780;2023-03-01T04:54:54;3.83;;;3.08;;
44145;SDS011;29809;52.432;4.780;2023-03-01T04:57:19;3.47;;;3.17;;
44145;SDS011;29809;52.432;4.780;2023-03-01T04:59:44;4.00;;;2.77;;
44145;SDS011;29809;52.432;4.780;2023-03-01T05:02:10;2.88;;;2.58;;
44145;SDS011;29809;52.432;4.780;2023-03-01T05:04:35;3.47;;;3.00;;
44145;SDS011;29809;52.432;4.780;2023-03-01T05:07:00;3.47;;;3.05;;
44145;SDS011;29809;52.432;4.780;2023-03-01T05:09:25;3.67;;;2.90;;
44145;SDS011;29809;52.432;4.780;2023-03-01T05:11:51;4.35;;;2.72;;
44145;SDS011;29809;52.432;4.780;2023-03-01T05:14:16;3.60;;;3.13;;
44145;SDS011;29809;52.432;4.780;2023-03-01T05:16:42;4.20;;;3.80;;
44145;SDS011;29809;52.432;4.780;2023-03-01T05:19:07;3.53;;;2.93;;
44145;SDS011;29809;52.432;4.780;2023-03-01T05:21:40;3.73;;;3.37;;
44145;SDS011;29809;52.432;4.780;2023-03-01T05:24:25;4.03;;;3.43;;
44145;SDS011;29809;52.432;4.780;2023-03-01T05:26:50;3.85;;;3.30;;
44145;SDS011;29809;52.432;4.780;2023-03-01T05:29:19;5.30;;;3.30;;
44145;SDS011;29809;52.432;4.780;2023-03-01T05:31:50;4.53;;;3.58;;
44145;SDS011;29809;52.432;4.780;2023-03-01T05:34:15;3.83;;;3.27;;
44145;SDS011;29809;52.432;4.780;2023-03-01T05:36:40;4.60;;;3.47;;
44145;SDS011;29809;52.432;4.780;2023-03-01T05:39:05;4.65;;;3.78;;
44145;SDS011;29809;52.432;4.780;2023-03-01T05:41:31;5.23;;;4.37;;
44145;SDS011;29809;52.432;4.780;2023-03-01T05:43:56;5.13;;;4.00;;
44145;SDS011;29809;52.432;4.780;2023-03-01T05:46:21;4.27;;;3.53;;
44145;SDS011;29809;52.432;4.780;2023-03-01T05:48:49;4.88;;;3.78;;
44145;SDS011;29809;52.432;4.780;2023-03-01T05:51:14;4.68;;;4.15;;
44145;SDS011;29809;52.432;4.780;2023-03-01T05:53:39;5.68;;;3.70;;
44145;SDS011;29809;52.432;4.780;2023-03-01T05:56:05;5.60;;;3.60;;
44145;SDS011;29809;52.432;4.780;2023-03-01T05:58:31;6.38;;;3.85;;
44145;SDS011;29809;52.432;4.780;2023-03-01T06:00:56;4.22;;;3.83;;
44145;SDS011;29809;52.432;4.780;2023-03-01T06:03:21;6.82;;;3.85;;
44145;SDS011;29809;52.432;4.780;2023-03-01T06:05:46;4.30;;;3.90;;
44145;SDS011;29809;52.432;4.780;2023-03-01T06:08:12;4.05;;;3.35;;
44145;SDS011;29809;52.432;4.780;2023-03-01T06:10:37;12.33;;;5.20;;
44145;SDS011;29809;52.432;4.780;2023-03-01T06:13:03;63.25;;;21.77;;
44145;SDS011;29809;52.432;4.780;2023-03-01T06:15:28;62.38;;;18.73;;
44145;SDS011;29809;52.432;4.780;2023-03-01T06:17:54;52.05;;;15.80;;
44145;SDS011;29809;52.432;4.780;2023-03-01T06:20:23;35.13;;;15.15;;
44145;SDS011;29809;52.432;4.780;2023-03-01T06:22:49;36.50;;;13.35;;
44145;SDS011;29809;52.432;4.780;2023-03-01T06:25:15;38.70;;;12.77;;
44145;SDS011;29809;52.432;4.780;2023-03-01T06:27:41;27.75;;;11.65;;
44145;SDS011;29809;52.432;4.780;2023-03-01T06:30:07;22.63;;;11.00;;
44145;SDS011;29809;52.432;4.780;2023-03-01T06:32:32;29.30;;;11.10;;
44145;SDS011;29809;52.432;4.780;2023-03-01T06:34:58;21.80;;;10.15;;
44145;SDS011;29809;52.432;4.780;2023-03-01T06:37:23;24.87;;;10.20;;
44145;SDS011;29809;52.432;4.780;2023-03-01T06:39:49;23.23;;;9.48;;
44145;SDS011;29809;52.432;4.780;2023-03-01T06:42:14;20.50;;;9.38;;
44145;SDS011;29809;52.432;4.780;2023-03-01T06:44:39;20.98;;;8.38;;
44145;SDS011;29809;52.432;4.780;2023-03-01T06:47:04;16.27;;;7.65;;
44145;SDS011;29809;52.432;4.780;2023-03-01T06:49:30;13.80;;;7.10;;
44145;SDS011;29809;52.432;4.780;2023-03-01T06:51:56;13.47;;;7.40;;
44145;SDS011;29809;52.432;4.780;2023-03-01T06:54:21;9.63;;;6.05;;
44145;SDS011;29809;52.432;4.780;2023-03-01T06:56:47;13.25;;;7.35;;
44145;SDS011;29809;52.432;4.780;2023-03-01T06:59:12;13.48;;;6.05;;
44145;SDS011;29809;52.432;4.780;2023-03-01T07:01:38;15.60;;;6.32;;
44145;SDS011;29809;52.432;4.780;2023-03-01T07:04:04;10.63;;;5.67;;
44145;SDS011;29809;52.432;4.780;2023-03-01T07:06:29;12.20;;;6.47;;
44145;SDS011;29809;52.432;4.780;2023-03-01T07:08:54;5.95;;;4.15;;
44145;SDS011;29809;52.432;4.780;2023-03-01T07:11:19;9.25;;;4.32;;
44145;SDS011;29809;52.432;4.780;2023-03-01T07:13:44;5.60;;;4.07;;
44145;SDS011;29809;52.432;4.780;2023-03-01T07:16:10;6.83;;;4.57;;
44145;SDS011;29809;52.432;4.780;2023-03-01T07:18:35;7.25;;;3.90;;
44145;SDS011;29809;52.432;4.780;2023-03-01T07:21:07;8.15;;;4.80;;
44145;SDS011;29809;52.432;4.780;2023-03-01T07:23:32;5.73;;;3.90;;
44145;SDS011;29809;52.432;4.780;2023-03-01T07:25:58;9.20;;;4.38;;
44145;SDS011;29809;52.432;4.780;2023-03-01T07:28:23;5.87;;;3.77;;
44145;SDS011;29809;52.432;4.780;2023-03-01T07:30:49;6.60;;;4.40;;
44145;SDS011;29809;52.432;4.780;2023-03-01T07:33:14;5.67;;;3.87;;
44145;SDS011;29809;52.432;4.780;2023-03-01T07:35:39;8.23;;;4.07;;
44145;SDS011;29809;52.432;4.780;2023-03-01T07:38:04;8.67;;;3.60;;
44145;SDS011;29809;52.432;4.780;2023-03-01T07:40:30;5.47;;;3.38;;
44145;SDS011;29809;52.432;4.780;2023-03-01T07:42:55;4.67;;;3.20;;
44145;SDS011;29809;52.432;4.780;2023-03-01T07:45:21;5.25;;;3.22;;
44145;SDS011;29809;52.432;4.780;2023-03-01T07:47:46;6.63;;;3.50;;
44145;SDS011;29809;52.432;4.780;2023-03-01T07:50:11;5.32;;;3.58;;
44145;SDS011;29809;52.432;4.780;2023-03-01T07:52:38;4.30;;;3.90;;
44145;SDS011;29809;52.432;4.780;2023-03-01T07:55:03;4.87;;;4.03;;
44145;SDS011;29809;52.432;4.780;2023-03-01T07:57:29;4.53;;;3.60;;
44145;SDS011;29809;52.432;4.780;2023-03-01T07:59:54;5.70;;;4.30;;
44145;SDS011;29809;52.432;4.780;2023-03-01T08:02:19;5.03;;;4.20;;
44145;SDS011;29809;52.432;4.780;2023-03-01T08:04:44;7.43;;;4.93;;
44145;SDS011;29809;52.432;4.780;2023-03-01T08:07:10;7.03;;;5.30;;
44145;SDS011;29809;52.432;4.780;2023-03-01T08:09:35;6.70;;;4.80;;
44145;SDS011;29809;52.432;4.780;2023-03-01T08:12:01;5.90;;;5.27;;
44145;SDS011;29809;52.432;4.780;2023-03-01T08:14:27;7.27;;;4.90;;
44145;SDS011;29809;52.432;4.780;2023-03-01T08:16:52;8.02;;;5.68;;
44145;SDS011;29809;52.432;4.780;2023-03-01T08:19:17;7.30;;;5.33;;
44145;SDS011;29809;52.432;4.780;2023-03-01T08:21:43;6.72;;;5.35;;
44145;SDS011;29809;52.432;4.780;2023-03-01T08:24:08;6.50;;;5.83;;
44145;SDS011;29809;52.432;4.780;2023-03-01T08:26:35;7.57;;;5.80;;
44145;SDS011;29809;52.432;4.780;2023-03-01T08:29:00;5.67;;;4.80;;
44145;SDS011;29809;52.432;4.780;2023-03-01T08:31:28;13.63;;;5.90;;
44145;SDS011;29809;52.432;4.780;2023-03-01T08:33:56;8.23;;;5.53;;
44145;SDS011;29809;52.432;4.780;2023-03-01T08:36:22;9.33;;;5.63;;
44145;SDS011;29809;52.432;4.780;2023-03-01T08:38:48;11.53;;;5.20;;
44145;SDS011;29809;52.432;4.780;2023-03-01T08:41:13;8.67;;;5.57;;
44145;SDS011;29809;52.432;4.780;2023-03-01T08:43:39;6.90;;;6.20;;
44145;SDS011;29809;52.432;4.780;2023-03-01T08:46:04;8.50;;;5.80;;
44145;SDS011;29809;52.432;4.780;2023-03-01T08:48:29;8.50;;;6.50;;
44145;SDS011;29809;52.432;4.780;2023-03-01T08:50:55;8.60;;;5.53;;
44145;SDS011;29809;52.432;4.780;2023-03-01T08:53:20;7.13;;;5.50;;
44145;SDS011;29809;52.432;4.780;2023-03-01T08:55:45;7.50;;;5.53;;
44145;SDS011;29809;52.432;4.780;2023-03-01T08:58:11;7.53;;;5.20;;
44145;SDS011;29809;52.432;4.780;2023-03-01T09:00:36;7.63;;;5.80;;
44145;SDS011;29809;52.432;4.780;2023-03-01T09:03:01;7.65;;;5.80;;
44145;SDS011;29809;52.432;4.780;2023-03-01T09:05:27;6.43;;;5.25;;
44145;SDS011;29809;52.432;4.780;2023-03-01T09:07:52;7.87;;;5.50;;
44145;SDS011;29809;52.432;4.780;2023-03-01T09:10:17;9.40;;;5.95;;
44145;SDS011;29809;52.432;4.780;2023-03-01T09:12:43;6.00;;;5.23;;
44145;SDS011;29809;52.432;4.780;2023-03-01T09:15:08;6.07;;;5.47;;
44145;SDS011;29809;52.432;4.780;2023-03-01T09:17:33;6.83;;;5.63;;
44145;SDS011;29809;52.432;4.780;2023-03-01T09:19:59;7.60;;;5.17;;
44145;SDS011;29809;52.432;4.780;2023-03-01T09:22:24;6.63;;;5.93;;
44145;SDS011;29809;52.432;4.780;2023-03-01T09:24:50;7.05;;;5.78;;
44145;SDS011;29809;52.432;4.780;2023-03-01T09:27:15;6.07;;;5.45;;
44145;SDS011;29809;52.432;4.780;2023-03-01T09:29:43;6.20;;;4.97;;
44145;SDS011;29809;52.432;4.780;2023-03-01T09:32:08;6.00;;;5.40;;
44145;SDS011;29809;52.432;4.780;2023-03-01T09:34:34;5.67;;;5.07;;
44145;SDS011;29809;52.432;4.780;2023-03-01T09:37:19;6.30;;;5.70;;
44145;SDS011;29809;52.432;4.780;2023-03-01T09:39:44;5.43;;;4.80;;
44145;SDS011;29809;52.432;4.780;2023-03-01T09:42:11;5.33;;;4.83;;
44145;SDS011;29809;52.432;4.780;2023-03-01T09:44:45;7.17;;;5.17;;
44145;SDS011;29809;52.432;4.780;2023-03-01T09:49:42;5.53;;;4.90;;
44145;SDS011;29809;52.432;4.780;2023-03-01T09:54:41;5.10;;;4.60;;
44145;SDS011;29809;52.432;4.780;2023-03-01T09:57:13;5.40;;;4.87;;
44145;SDS011;29809;52.432;4.780;2023-03-01T09:59:45;6.35;;;4.57;;
44145;SDS011;29809;52.432;4.780;2023-03-01T10:09:36;5.30;;;4.80;;
44145;SDS011;29809;52.432;4.780;2023-03-01T10:12:02;4.73;;;4.33;;
44145;SDS011;29809;52.432;4.780;2023-03-01T10:16:55;4.90;;;4.40;;
44145;SDS011;29809;52.432;4.780;2023-03-01T10:21:48;6.10;;;4.70;;
44145;SDS011;29809;52.432;4.780;2023-03-01T10:24:16;4.93;;;4.30;;
44145;SDS011;29809;52.432;4.780;2023-03-01T10:26:48;4.93;;;4.47;;
44145;SDS011;29809;52.432;4.780;2023-03-01T10:29:13;5.50;;;5.00;;
44145;SDS011;29809;52.432;4.780;2023-03-01T10:31:40;5.07;;;4.23;;
44145;SDS011;29809;52.432;4.780;2023-03-01T10:34:11;5.18;;;4.63;;
44145;SDS011;29809;52.432;4.780;2023-03-01T10:36:38;4.87;;;4.37;;
44145;SDS011;29809;52.432;4.780;2023-03-01T10:39:06;4.72;;;4.25;;
44145;SDS011;29809;52.432;4.780;2023-03-01T10:41:35;4.32;;;3.92;;
44145;SDS011;29809;52.432;4.780;2023-03-01T10:44:05;4.83;;;4.33;;
44145;SDS011;29809;52.432;4.780;2023-03-01T10:46:34;4.97;;;4.47;;
44145;SDS011;29809;52.432;4.780;2023-03-01T10:51:37;4.70;;;4.30;;
44145;SDS011;29809;52.432;4.780;2023-03-01T10:54:04;4.70;;;4.13;;
44145;SDS011;29809;52.432;4.780;2023-03-01T10:56:29;4.33;;;3.93;;
44145;SDS011;29809;52.432;4.780;2023-03-01T10:59:25;4.03;;;3.70;;
44145;SDS011;29809;52.432;4.780;2023-03-01T11:02:15;4.43;;;4.03;;
44145;SDS011;29809;52.432;4.780;2023-03-01T11:04:36;4.10;;;3.70;;
44145;SDS011;29809;52.432;4.780;2023-03-01T11:07:02;5.17;;;4.67;;
44145;SDS011;29809;52.432;4.780;2023-03-01T11:09:30;4.60;;;4.20;;
44145;SDS011;29809;52.432;4.780;2023-03-01T11:12:02;4.80;;;4.17;;
44145;SDS011;29809;52.432;4.780;2023-03-01T11:14:30;4.40;;;4.00;;
44145;SDS011;29809;52.432;4.780;2023-03-01T11:17:01;4.60;;;4.20;;
44145;SDS011;29809;52.432;4.780;2023-03-01T11:19:26;4.37;;;3.87;;
44145;SDS011;29809;52.432;4.780;2023-03-01T11:21:54;4.47;;;4.07;;
44145;SDS011;29809;52.432;4.780;2023-03-01T11:24:22;4.63;;;4.22;;
44145;SDS011;29809;52.432;4.780;2023-03-01T11:26:53;4.17;;;3.57;;
44145;SDS011;29809;52.432;4.780;2023-03-01T11:32:01;3.90;;;3.47;;
44145;SDS011;29809;52.432;4.780;2023-03-01T11:37:02;6.27;;;3.40;;
44145;SDS011;29809;52.432;4.780;2023-03-01T11:39:33;3.83;;;3.53;;
44145;SDS011;29809;52.432;4.780;2023-03-01T11:42:10;4.00;;;3.63;;
44145;SDS011;29809;52.432;4.780;2023-03-01T11:44:37;4.67;;;4.00;;
44145;SDS011;29809;52.432;4.780;2023-03-01T11:47:19;3.67;;;3.22;;
44145;SDS011;29809;52.432;4.780;2023-03-01T11:54:53;3.60;;;3.30;;
44145;SDS011;29809;52.432;4.780;2023-03-01T12:00:15;3.73;;;3.30;;
44145;SDS011;29809;52.432;4.780;2023-03-01T12:02:57;4.03;;;3.60;;
44145;SDS011;29809;52.432;4.780;2023-03-01T12:13:06;3.47;;;3.17;;
44145;SDS011;29809;52.432;4.780;2023-03-01T12:15:38;4.18;;;3.80;;
44145;SDS011;29809;52.432;4.780;2023-03-01T12:20:35;3.57;;;3.27;;
44145;SDS011;29809;52.432;4.780;2023-03-01T12:23:11;3.47;;;3.17;;
44145;SDS011;29809;52.432;4.780;2023-03-01T12:25:45;3.35;;;3.05;;
44145;SDS011;29809;52.432;4.780;2023-03-01T12:28:16;3.67;;;3.38;;
44145;SDS011;29809;52.432;4.780;2023-03-01T12:33:39;3.85;;;3.42;;
44145;SDS011;29809;52.432;4.780;2023-03-01T12:49:52;4.00;;;3.30;;
44145;SDS011;29809;52.432;4.780;2023-03-01T12:52:17;3.93;;;3.60;;
44145;SDS011;29809;52.432;4.780;2023-03-01T12:54:45;4.22;;;3.67;;
44145;SDS011;29809;52.432;4.780;2023-03-01T12:57:31;3.17;;;2.88;;
44145;SDS011;29809;52.432;4.780;2023-03-01T13:02:47;4.00;;;3.60;;
44145;SDS011;29809;52.432;4.780;2023-03-01T13:05:51;3.90;;;3.50;;
44145;SDS011;29809;52.432;4.780;2023-03-01T13:08:18;4.10;;;3.70;;
44145;SDS011;29809;52.432;4.780;2023-03-01T13:13:22;4.00;;;3.60;;
44145;SDS011;29809;52.432;4.780;2023-03-01T13:15:48;4.70;;;3.97;;
44145;SDS011;29809;52.432;4.780;2023-03-01T13:23:31;4.40;;;4.00;;
44145;SDS011;29809;52.432;4.780;2023-03-01T13:28:36;4.30;;;3.90;;
44145;SDS011;29809;52.432;4.780;2023-03-01T13:31:03;3.87;;;3.57;;
44145;SDS011;29809;52.432;4.780;2023-03-01T13:35:55;4.30;;;3.88;;
44145;SDS011;29809;52.432;4.780;2023-03-01T13:41:06;4.55;;;4.10;;
44145;SDS011;29809;52.432;4.780;2023-03-01T13:43:32;5.77;;;3.83;;
44145;SDS011;29809;52.432;4.780;2023-03-01T13:45:58;4.80;;;4.30;;
44145;SDS011;29809;52.432;4.780;2023-03-01T13:48:28;4.87;;;4.40;;
44145;SDS011;29809;52.432;4.780;2023-03-01T13:51:00;4.97;;;4.17;;
44145;SDS011;29809;52.432;4.780;2023-03-01T13:53:28;5.93;;;4.83;;
44145;SDS011;29809;52.432;4.780;2023-03-01T13:55:58;4.67;;;4.27;;
44145;SDS011;29809;52.432;4.780;2023-03-01T14:00:57;4.60;;;4.20;;
44145;SDS011;29809;52.432;4.780;2023-03-01T14:03:23;4.50;;;4.00;;
44145;SDS011;29809;52.432;4.780;2023-03-01T14:06:05;4.68;;;4.28;;
44145;SDS011;29809;52.432;4.780;2023-03-01T14:08:31;5.10;;;4.60;;
44145;SDS011;29809;52.432;4.780;2023-03-01T14:13:48;5.25;;;4.75;;
44145;SDS011;29809;52.432;4.780;2023-03-01T14:21:22;5.00;;;4.60;;
44145;SDS011;29809;52.432;4.780;2023-03-01T14:23:47;5.20;;;4.70;;
44145;SDS011;29809;52.432;4.780;2023-03-01T14:26:13;5.93;;;4.72;;
44145;SDS011;29809;52.432;4.780;2023-03-01T14:28:44;5.80;;;5.28;;
44145;SDS011;29809;52.432;4.780;2023-03-01T14:31:29;5.57;;;4.97;;
44145;SDS011;29809;52.432;4.780;2023-03-01T14:33:56;5.70;;;5.03;;
44145;SDS011;29809;52.432;4.780;2023-03-01T14:36:25;6.10;;;5.50;;
44145;SDS011;29809;52.432;4.780;2023-03-01T14:38:51;6.20;;;5.60;;
44145;SDS011;29809;52.432;4.780;2023-03-01T14:41:18;7.05;;;5.50;;
44145;SDS011;29809;52.432;4.780;2023-03-01T14:43:45;5.32;;;4.72;;
44145;SDS011;29809;52.432;4.780;2023-03-01T14:46:19;5.85;;;4.88;;
44145;SDS011;29809;52.432;4.780;2023-03-01T14:48:48;4.57;;;4.17;;
44145;SDS011;29809;52.432;4.780;2023-03-01T14:51:13;5.38;;;4.45;;
44145;SDS011;29809;52.432;4.780;2023-03-01T14:53:38;5.95;;;5.05;;
44145;SDS011;29809;52.432;4.780;2023-03-01T14:56:03;5.57;;;4.57;;
44145;SDS011;29809;52.432;4.780;2023-03-01T14:58:31;5.20;;;4.70;;
44145;SDS011;29809;52.432;4.780;2023-03-01T15:01:01;9.82;;;4.55;;
44145;SDS011;29809;52.432;4.780;2023-03-01T15:03:37;14.10;;;4.53;;
44145;SDS011;29809;52.432;4.780;2023-03-01T15:06:03;14.10;;;4.60;;
44145;SDS011;29809;52.432;4.780;2023-03-01T15:08:29;7.63;;;4.10;;
44145;SDS011;29809;52.432;4.780;2023-03-01T15:13:38;6.78;;;3.78;;
44145;SDS011;29809;52.432;4.780;2023-03-01T15:16:08;3.80;;;3.50;;
44145;SDS011;29809;52.432;4.780;2023-03-01T15:18:34;4.07;;;3.67;;
44145;SDS011;29809;52.432;4.780;2023-03-01T15:21:06;4.60;;;3.90;;
44145;SDS011;29809;52.432;4.780;2023-03-01T15:23:32;5.88;;;3.65;;
44145;SDS011;29809;52.432;4.780;2023-03-01T15:25:57;5.32;;;3.40;;
44145;SDS011;29809;52.432;4.780;2023-03-01T15:28:48;4.45;;;3.60;;
44145;SDS011;29809;52.432;4.780;2023-03-01T15:33:37;4.93;;;3.58;;
44145;SDS011;29809;52.432;4.780;2023-03-01T15:36:03;4.22;;;3.78;;
44145;SDS011;29809;52.432;4.780;2023-03-01T15:38:52;6.75;;;3.70;;
44145;SDS011;29809;52.432;4.780;2023-03-01T15:41:23;4.00;;;3.40;;
44145;SDS011;29809;52.432;4.780;2023-03-01T15:43:49;3.90;;;3.30;;
44145;SDS011;29809;52.432;4.780;2023-03-01T15:46:16;3.70;;;3.00;;
44145;SDS011;29809;52.432;4.780;2023-03-01T15:48:46;4.80;;;3.00;;
44145;SDS011;29809;52.432;4.780;2023-03-01T15:51:12;3.60;;;3.03;;
44145;SDS011;29809;52.432;4.780;2023-03-01T15:53:38;3.65;;;3.20;;
44145;SDS011;29809;52.432;4.780;2023-03-01T15:56:03;3.83;;;2.70;;
44145;SDS011;29809;52.432;4.780;2023-03-01T15:58:30;4.25;;;3.00;;
44145;SDS011;29809;52.432;4.780;2023-03-01T16:00:56;4.13;;;2.78;;
44145;SDS011;29809;52.432;4.780;2023-03-01T16:03:22;3.75;;;2.50;;
44145;SDS011;29809;52.432;4.780;2023-03-01T16:05:48;3.97;;;2.75;;
44145;SDS011;29809;52.432;4.780;2023-03-01T16:08:13;3.75;;;2.47;;
44145;SDS011;29809;52.432;4.780;2023-03-01T16:10:40;4.22;;;2.72;;
44145;SDS011;29809;52.432;4.780;2023-03-01T16:13:05;2.67;;;2.38;;
44145;SDS011;29809;52.432;4.780;2023-03-01T16:15:33;2.72;;;2.50;;
44145;SDS011;29809;52.432;4.780;2023-03-01T16:18:02;3.40;;;3.10;;
44145;SDS011;29809;52.432;4.780;2023-03-01T16:20:28;2.88;;;2.55;;
44145;SDS011;29809;52.432;4.780;2023-03-01T16:22:54;3.15;;;2.85;;
44145;SDS011;29809;52.432;4.780;2023-03-01T16:25:20;3.75;;;2.80;;
44145;SDS011;29809;52.432;4.780;2023-03-01T16:27:46;2.75;;;2.55;;